< < Back
Terminal Aerodrome Forecast


Current Version              Previous Versions:   1  2  3  4  5  6  7  8  9  

Terminal Aerodrome Forecast

880
FTUS44 KOHX 191600 AAC
TAFCSV
TAF AMD
KCSV 191639Z 1917/2012 26005KT P6SM SCT007 BKN045 OVC090
      TEMPO 1917/1919 5SM -SHRA OVC015
     FM200000 22005KT P6SM SCT050=

Latest METAR

236
SAUS70 KWBC 200400 RRB
MTRCSV
METAR KCSV 200353Z AUTO 00000KT 6SM HZ CLR 23/19 A2998 RMK AO2 SLP131
T02280194


USA.gov is the U.S. government's official web portal to all federal, state and local government web resources and services.